WXM80 ListenWXM80 Stop

You find our weather info also at:

UK Metoffice

WeatherCloud

Weather Underground

Northeastern Weather Network

AWEKAS

Citizen Weather Observer Program (CWOP)

HAMweather, WeatherForYou, PWS Weather


Weather Underground History page Text

Daily Summary for April 10, 2016 Units:  English    Metric   Both
« Previous Day
Next Day »
Daily Weekly Monthly Yearly Custom
  High: Low: Average:
Temperature: 52.3 °F 32.8 °F 42 °F
Dew Point: 35.6 °F 17.0 °F 24.8 °F
Humidity: 75 % 28 % 52 %
Wind Speed: 11.4 mph 0.3 mph 4.5 mph
Wind Gust: 20.7 mph - -
Wind:- - WSW
Pressure: 30.31 in 29.95 in -
Precipitation: 0.01 in    
Historical Graphs
 
 
Tabular Data for April 10, 2016
Time Temperature Dew Point Pressure Wind Wind Speed Wind Gust Humidity Rainfall Rate (Hourly)
00:04 41.4 °F 27.3 °F 29.95 in NNW 7.4 mph 13.0 mph 57 % 0.00 in
00:09 41.3 °F 28.0 °F 29.95 in North 5.9 mph 12.7 mph 59 % 0.00 in
00:14 41.2 °F 27.9 °F 29.96 in NNW 9.0 mph 12.7 mph 59 % 0.00 in
00:19 41.0 °F 28.2 °F 29.97 in NNW 7.7 mph 10.4 mph 60 % 0.00 in
00:24 40.8 °F 28.0 °F 29.97 in North 7.5 mph 12.0 mph 60 % 0.00 in
00:29 40.6 °F 27.8 °F 29.97 in NW 5.4 mph 15.0 mph 60 % 0.00 in
00:34 40.5 °F 27.7 °F 29.97 in North 6.7 mph 9.2 mph 60 % 0.00 in
00:45 40.1 °F 26.5 °F 29.99 in North 4.2 mph 12.7 mph 58 % 0.00 in
00:50 39.9 °F 26.3 °F 29.99 in NNW 10.3 mph 18.4 mph 58 % 0.00 in
00:55 39.7 °F 26.5 °F 30.00 in North 4.7 mph 13.8 mph 59 % 0.00 in
01:00 39.4 °F 25.8 °F 30.00 in NNW 9.7 mph 18.4 mph 58 % 0.00 in
01:05 39.2 °F 26.1 °F 30.00 in North 7.5 mph 12.7 mph 59 % 0.00 in
01:10 39.0 °F 25.5 °F 30.01 in WSW 10.7 mph 18.4 mph 58 % 0.00 in
01:20 38.7 °F 25.6 °F 30.02 in NNE 9.4 mph 11.5 mph 59 % 0.00 in
01:25 38.6 °F 25.9 °F 30.02 in NE 7.9 mph 12.7 mph 60 % 0.00 in
01:30 38.4 °F 23.6 °F 30.03 in North 9.1 mph 15.0 mph 55 % 0.00 in
01:36 38.3 °F 23.5 °F 30.03 in North 7.9 mph 20.7 mph 55 % 0.00 in
01:41 38.1 °F 23.8 °F 30.03 in NNW 4.1 mph 11.5 mph 56 % 0.00 in
01:46 38.0 °F 23.3 °F 30.03 in NNE 7.6 mph 13.8 mph 55 % 0.00 in
01:51 37.9 °F 23.2 °F 30.04 in NW 11.4 mph 18.4 mph 55 % 0.00 in
01:56 37.8 °F 23.1 °F 30.04 in North 9.1 mph 16.1 mph 55 % 0.00 in
02:01 37.7 °F 23.4 °F 30.05 in NNE 7.4 mph 13.8 mph 56 % 0.00 in
02:06 37.5 °F 23.6 °F 30.05 in NNW 4.1 mph 8.1 mph 57 % 0.00 in
02:11 37.4 °F 23.1 °F 30.05 in NNW 6.1 mph 9.2 mph 56 % 0.00 in
02:16 37.2 °F 22.5 °F 30.06 in NNE 8.6 mph 11.5 mph 55 % 0.00 in
02:27 37.0 °F 22.3 °F 30.06 in NNW 6.0 mph 11.5 mph 55 % 0.00 in
02:32 36.9 °F 23.1 °F 30.06 in WNW 3.8 mph 7.0 mph 57 % 0.00 in
02:37 36.7 °F 22.0 °F 30.07 in NW 6.0 mph 12.7 mph 55 % 0.00 in
02:42 36.6 °F 21.5 °F 30.07 in North 4.1 mph 8.1 mph 54 % 0.00 in
02:47 36.4 °F 21.3 °F 30.08 in North 5.4 mph 10.4 mph 54 % 0.00 in
02:52 36.3 °F 22.1 °F 30.08 in NNW 5.4 mph 11.5 mph 56 % 0.00 in
02:57 36.2 °F 22.0 °F 30.08 in North 3.6 mph 5.8 mph 56 % 0.00 in
03:02 36.0 °F 21.8 °F 30.09 in NW 4.9 mph 9.2 mph 56 % 0.00 in
03:12 35.7 °F 20.7 °F 30.09 in NW 7.5 mph 13.8 mph 54 % 0.00 in
03:18 35.5 °F 20.0 °F 30.09 in West 5.5 mph 9.2 mph 53 % 0.00 in
03:23 35.4 °F 19.5 °F 30.10 in North 6.0 mph 15.0 mph 52 % 0.00 in
03:28 35.3 °F 19.9 °F 30.10 in NNW 3.5 mph 9.2 mph 53 % 0.00 in
03:33 35.2 °F 19.8 °F 30.10 in North 7.3 mph 13.8 mph 53 % 0.00 in
03:38 35.1 °F 18.8 °F 30.11 in NNW 4.8 mph 8.1 mph 51 % 0.00 in
03:43 35.0 °F 18.2 °F 30.11 in NNW 7.4 mph 12.7 mph 50 % 0.00 in
03:48 35.0 °F 18.2 °F 30.11 in NNW 6.9 mph 11.5 mph 50 % 0.00 in
03:53 34.9 °F 18.6 °F 30.11 in NW 7.1 mph 13.0 mph 51 % 0.00 in
03:58 34.7 °F 17.0 °F 30.11 in NNW 8.0 mph 10.4 mph 48 % 0.00 in
04:03 34.6 °F 17.8 °F 30.12 in NNW 4.5 mph 11.5 mph 50 % 0.00 in
04:09 34.5 °F 17.8 °F 30.12 in NW 8.1 mph 12.7 mph 50 % 0.00 in
04:14 34.4 °F 17.7 °F 30.12 in NNE 4.3 mph 8.1 mph 50 % 0.00 in
04:24 34.2 °F 17.9 °F 30.12 in NW 2.3 mph 6.0 mph 51 % 0.00 in
04:29 34.1 °F 18.3 °F 30.13 in NNW 5.2 mph 8.0 mph 52 % 0.01 in
04:34 34.0 °F 17.7 °F 30.13 in WNW 5.3 mph 10.0 mph 51 % 0.01 in
04:39 33.9 °F 18.1 °F 30.13 in NW 5.8 mph 10.4 mph 52 % 0.01 in
04:49 33.8 °F 17.1 °F 30.14 in West 5.0 mph 9.2 mph 50 % 0.01 in
04:54 33.8 °F 18.0 °F 30.14 in NNW 2.3 mph 11.0 mph 52 % 0.01 in
05:00 33.7 °F 17.5 °F 30.14 in NNW 4.3 mph 8.1 mph 51 % 0.01 in
05:05 33.7 °F 18.4 °F 30.14 in NW 2.8 mph 9.2 mph 53 % 0.01 in
05:10 33.5 °F 18.2 °F 30.14 in NNW 4.4 mph 9.2 mph 53 % 0.01 in
05:15 33.4 °F 18.1 °F 30.15 in NNE 4.7 mph 8.1 mph 53 % 0.01 in
05:20 33.3 °F 17.5 °F 30.15 in NNW 3.9 mph 8.0 mph 52 % 0.01 in
05:25 33.3 °F 17.5 °F 30.15 in North 2.0 mph 3.5 mph 52 % 0.01 in
05:30 33.2 °F 18.3 °F 30.16 in NNW 3.2 mph 6.0 mph 54 % 0.00 in
05:40 33.1 °F 17.8 °F 30.17 in NW 4.5 mph 5.8 mph 53 % 0.00 in
05:45 33.1 °F 18.2 °F 30.17 in NNE 4.7 mph 6.0 mph 54 % 0.00 in
05:51 33.1 °F 18.7 °F 30.17 in NNW 4.4 mph 5.8 mph 55 % 0.00 in
05:56 33.0 °F 19.0 °F 30.18 in NW 4.2 mph 6.9 mph 56 % 0.00 in
06:01 32.9 °F 19.3 °F 30.18 in NNE 4.6 mph 6.9 mph 57 % 0.00 in
06:06 32.9 °F 18.5 °F 30.19 in NW 3.6 mph 6.9 mph 55 % 0.00 in
06:11 32.9 °F 18.1 °F 30.19 in North 5.7 mph 10.4 mph 54 % 0.00 in
06:16 32.8 °F 18.0 °F 30.19 in NNW 5.2 mph 8.0 mph 54 % 0.00 in
06:21 32.9 °F 18.1 °F 30.20 in North 2.7 mph 8.1 mph 54 % 0.00 in
06:26 32.9 °F 17.6 °F 30.20 in NNE 3.4 mph 6.9 mph 53 % 0.00 in
06:31 32.9 °F 18.5 °F 30.20 in North 2.0 mph 4.6 mph 55 % 0.00 in
06:36 33.0 °F 18.6 °F 30.21 in North 4.4 mph 8.1 mph 55 % 0.00 in
06:42 33.1 °F 19.1 °F 30.22 in NNW 3.6 mph 6.0 mph 56 % 0.00 in
06:47 33.2 °F 18.8 °F 30.22 in NNE 0.3 mph 3.5 mph 55 % 0.00 in
06:52 33.3 °F 18.9 °F 30.22 in WNW 0.7 mph 3.5 mph 55 % 0.00 in
06:57 33.5 °F 19.0 °F 30.23 in NNE 0.9 mph 4.6 mph 55 % 0.00 in
07:02 33.7 °F 19.2 °F 30.23 in NW 2.9 mph 4.6 mph 55 % 0.00 in
07:07 33.9 °F 19.0 °F 30.23 in NW 4.3 mph 6.0 mph 54 % 0.00 in
07:12 34.1 °F 19.2 °F 30.23 in North 3.9 mph 6.0 mph 54 % 0.00 in
07:17 34.2 °F 19.3 °F 30.23 in North 2.0 mph 5.8 mph 54 % 0.00 in
07:22 34.3 °F 19.4 °F 30.24 in NNW 2.4 mph 5.0 mph 54 % 0.00 in
07:27 34.5 °F 19.5 °F 30.24 in NW 1.6 mph 5.8 mph 54 % 0.00 in
07:33 34.6 °F 19.6 °F 30.25 in North 2.3 mph 5.8 mph 54 % 0.00 in
07:43 34.8 °F 19.4 °F 30.25 in WNW 2.9 mph 5.8 mph 53 % 0.00 in
07:48 35.0 °F 19.6 °F 30.26 in North 3.7 mph 5.8 mph 53 % 0.00 in
07:53 35.2 °F 19.3 °F 30.26 in NW 2.6 mph 3.5 mph 52 % 0.00 in
07:58 35.3 °F 19.4 °F 30.26 in North 3.6 mph 5.0 mph 52 % 0.00 in
08:03 35.5 °F 19.6 °F 30.26 in NNW 2.3 mph 3.5 mph 52 % 0.00 in
08:08 35.9 °F 20.4 °F 30.26 in WNW 3.6 mph 7.0 mph 53 % 0.00 in
08:13 36.2 °F 19.8 °F 30.26 in NW 4.2 mph 5.8 mph 51 % 0.00 in
08:18 36.4 °F 20.0 °F 30.26 in NNW 2.8 mph 4.6 mph 51 % 0.00 in
08:24 36.7 °F 19.8 °F 30.27 in NNW 3.3 mph 6.9 mph 50 % 0.00 in
08:29 37.0 °F 20.5 °F 30.27 in North 3.4 mph 8.1 mph 51 % 0.00 in
08:34 37.3 °F 20.3 °F 30.27 in North 2.9 mph 5.8 mph 50 % 0.00 in
08:39 37.7 °F 21.6 °F 30.27 in NNE 3.0 mph 4.6 mph 52 % 0.00 in
08:44 38.1 °F 22.0 °F 30.28 in WNW 4.5 mph 6.9 mph 52 % 0.00 in
08:49 38.3 °F 21.7 °F 30.28 in WNW 2.7 mph 6.0 mph 51 % 0.00 in
08:54 38.5 °F 21.5 °F 30.28 in WNW 3.0 mph 4.6 mph 50 % 0.00 in
08:59 38.6 °F 22.0 °F 30.28 in NNW 3.0 mph 5.8 mph 51 % 0.00 in
09:04 39.1 °F 22.9 °F 30.28 in ENE 1.6 mph 4.6 mph 52 % 0.00 in
09:09 39.5 °F 21.4 °F 30.28 in NW 2.8 mph 9.2 mph 48 % 0.00 in
09:15 39.8 °F 22.7 °F 30.28 in North 4.3 mph 8.1 mph 50 % 0.00 in
09:20 40.3 °F 23.1 °F 30.28 in WNW 3.2 mph 6.9 mph 50 % 0.00 in
09:25 40.2 °F 24.0 °F 30.28 in NW 2.8 mph 6.0 mph 52 % 0.00 in
09:30 40.3 °F 24.1 °F 30.28 in NW 3.7 mph 7.0 mph 52 % 0.00 in
09:35 40.2 °F 22.5 °F 30.28 in NNW 4.9 mph 8.1 mph 49 % 0.00 in
09:40 40.2 °F 23.0 °F 30.29 in NW 1.4 mph 3.5 mph 50 % 0.00 in
09:45 40.5 °F 22.8 °F 30.29 in West 2.2 mph 5.8 mph 49 % 0.00 in
09:50 40.8 °F 24.5 °F 30.29 in WNW 3.1 mph 6.0 mph 52 % 0.00 in
09:55 41.3 °F 24.0 °F 30.30 in WNW 5.4 mph 7.0 mph 50 % 0.00 in
10:06 41.6 °F 23.8 °F 30.30 in North 4.0 mph 4.6 mph 49 % 0.00 in
10:11 41.8 °F 24.0 °F 30.30 in WNW 0.8 mph 4.6 mph 49 % 0.00 in
10:16 41.6 °F 21.8 °F 30.30 in WNW 4.8 mph 8.1 mph 45 % 0.00 in
10:21 41.6 °F 22.8 °F 30.31 in NNW 4.4 mph 6.9 mph 47 % 0.00 in
10:26 41.6 °F 24.3 °F 30.31 in West 2.0 mph 3.5 mph 50 % 0.00 in
10:31 42.3 °F 24.0 °F 30.31 in WNW 4.5 mph 6.9 mph 48 % 0.00 in
10:36 42.2 °F 23.9 °F 30.31 in WNW 0.5 mph 2.3 mph 48 % 0.00 in
10:46 42.8 °F 23.4 °F 30.31 in NW 1.2 mph 2.3 mph 46 % 0.00 in
10:51 43.4 °F 24.5 °F 30.31 in North 1.4 mph 3.5 mph 47 % 0.00 in
10:57 43.7 °F 23.7 °F 30.31 in West 5.7 mph 8.1 mph 45 % 0.00 in
11:02 43.9 °F 22.8 °F 30.31 in SW 4.6 mph 6.9 mph 43 % 0.00 in
11:07 44.2 °F 23.6 °F 30.31 in SW 5.4 mph 10.4 mph 44 % 0.00 in
11:12 44.6 °F 24.5 °F 30.31 in WSW 2.4 mph 4.0 mph 45 % 0.00 in
11:17 45.1 °F 24.5 °F 30.30 in WSW 2.4 mph 4.6 mph 44 % 0.00 in
11:22 45.9 °F 25.2 °F 30.30 in WNW 2.5 mph 4.0 mph 44 % 0.00 in
11:27 46.1 °F 23.7 °F 30.30 in West 1.6 mph 3.5 mph 41 % 0.00 in
11:32 45.9 °F 22.3 °F 30.30 in NW 4.6 mph 6.0 mph 39 % 0.00 in
11:37 45.4 °F 21.2 °F 30.30 in WSW 5.3 mph 6.9 mph 38 % 0.00 in
11:42 45.4 °F 22.5 °F 30.30 in WNW 4.6 mph 4.6 mph 40 % 0.00 in
11:48 45.7 °F 23.9 °F 30.30 in West 4.5 mph 7.0 mph 42 % 0.00 in
11:53 46.0 °F 23.6 °F 30.30 in SSW 3.4 mph 10.4 mph 41 % 0.00 in
11:58 46.4 °F 25.1 °F 30.30 in SSW 0.8 mph 3.5 mph 43 % 0.00 in
12:03 46.9 °F 25.0 °F 30.30 in WSW 4.1 mph 7.0 mph 42 % 0.00 in
12:08 47.1 °F 27.4 °F 30.30 in WSW 6.5 mph 10.0 mph 46 % 0.00 in
12:13 47.3 °F 25.9 °F 30.30 in South 4.1 mph 5.8 mph 43 % 0.00 in
12:18 47.5 °F 24.3 °F 30.30 in West 4.7 mph 10.4 mph 40 % 0.00 in
12:23 47.2 °F 24.1 °F 30.30 in SW 3.8 mph 9.2 mph 40 % 0.00 in
12:28 47.0 °F 23.9 °F 30.30 in WNW 2.7 mph 5.8 mph 40 % 0.00 in
12:33 46.7 °F 23.6 °F 30.29 in WSW 2.8 mph 6.9 mph 40 % 0.00 in
12:39 46.5 °F 23.4 °F 30.29 in WSW 3.7 mph 8.1 mph 40 % 0.00 in
12:44 46.6 °F 23.5 °F 30.29 in SW 6.6 mph 11.5 mph 40 % 0.00 in
12:49 46.8 °F 24.3 °F 30.29 in SW 7.8 mph 11.5 mph 41 % 0.00 in
12:54 47.0 °F 24.5 °F 30.29 in SW 6.9 mph 11.5 mph 41 % 0.00 in
12:59 47.3 °F 24.2 °F 30.29 in SW 5.1 mph 9.2 mph 40 % 0.00 in
13:04 47.4 °F 23.7 °F 30.29 in West 5.5 mph 8.0 mph 39 % 0.00 in
13:09 47.5 °F 24.3 °F 30.29 in WSW 5.9 mph 8.1 mph 40 % 0.00 in
13:14 47.3 °F 23.6 °F 30.29 in SW 7.9 mph 11.5 mph 39 % 0.00 in
13:19 47.4 °F 23.0 °F 30.29 in West 6.1 mph 10.4 mph 38 % 0.00 in
13:24 47.3 °F 22.3 °F 30.30 in WSW 6.0 mph 10.4 mph 37 % 0.00 in
13:30 47.3 °F 23.6 °F 30.29 in SSW 5.7 mph 10.4 mph 39 % 0.00 in
13:35 47.7 °F 23.9 °F 30.29 in SW 4.8 mph 11.5 mph 39 % 0.00 in
13:40 48.4 °F 23.9 °F 30.29 in West 5.1 mph 8.1 mph 38 % 0.00 in
13:45 48.6 °F 24.7 °F 30.29 in WSW 6.2 mph 9.2 mph 39 % 0.00 in
13:50 48.7 °F 24.8 °F 30.29 in WNW 4.9 mph 8.1 mph 39 % 0.00 in
13:55 48.8 °F 24.3 °F 30.29 in WSW 5.7 mph 9.2 mph 38 % 0.00 in
14:00 49.0 °F 25.1 °F 30.29 in NW 4.7 mph 10.4 mph 39 % 0.00 in
14:05 49.5 °F 25.5 °F 30.29 in WSW 1.6 mph 3.5 mph 39 % 0.00 in
14:10 49.9 °F 24.0 °F 30.29 in WNW 4.0 mph 8.0 mph 36 % 0.00 in
14:16 49.8 °F 22.5 °F 30.29 in NW 6.8 mph 10.4 mph 34 % 0.00 in
14:21 49.7 °F 23.8 °F 30.29 in SSW 5.3 mph 6.0 mph 36 % 0.00 in
14:26 49.9 °F 23.3 °F 30.28 in West 5.3 mph 10.4 mph 35 % 0.00 in
14:31 50.3 °F 25.6 °F 30.28 in SW 4.8 mph 5.8 mph 38 % 0.00 in
14:36 50.6 °F 23.9 °F 30.28 in West 4.9 mph 6.9 mph 35 % 0.00 in
14:41 50.8 °F 22.7 °F 30.28 in NW 4.3 mph 6.9 mph 33 % 0.00 in
14:46 50.7 °F 22.6 °F 30.28 in West 5.7 mph 6.9 mph 33 % 0.00 in
14:51 50.6 °F 23.2 °F 30.28 in WSW 5.8 mph 9.0 mph 34 % 0.00 in
14:56 50.5 °F 23.1 °F 30.27 in WNW 4.8 mph 8.1 mph 34 % 0.00 in
15:01 50.5 °F 23.1 °F 30.27 in NW 3.0 mph 6.0 mph 34 % 0.00 in
15:07 50.4 °F 23.7 °F 30.27 in NW 4.9 mph 8.1 mph 35 % 0.00 in
15:12 50.7 °F 23.3 °F 30.27 in WSW 6.0 mph 9.2 mph 34 % 0.00 in
15:17 50.9 °F 22.8 °F 30.27 in West 5.4 mph 10.4 mph 33 % 0.00 in
15:22 51.0 °F 22.1 °F 30.27 in West 3.4 mph 8.1 mph 32 % 0.00 in
15:27 51.1 °F 22.2 °F 30.27 in WNW 3.0 mph 6.9 mph 32 % 0.00 in
15:37 51.7 °F 22.8 °F 30.27 in SW 2.3 mph 4.6 mph 32 % 0.00 in
15:42 51.8 °F 22.1 °F 30.26 in WSW 3.9 mph 5.8 mph 31 % 0.00 in
15:47 52.0 °F 25.2 °F 30.26 in NW 1.2 mph 4.6 mph 35 % 0.00 in
15:52 52.3 °F 21.7 °F 30.26 in WNW 3.4 mph 6.9 mph 30 % 0.00 in
15:58 52.3 °F 22.5 °F 30.25 in NW 2.1 mph 5.8 mph 31 % 0.00 in
16:03 52.2 °F 20.0 °F 30.25 in WNW 6.2 mph 11.5 mph 28 % 0.00 in
16:08 51.9 °F 21.4 °F 30.25 in WNW 6.1 mph 10.0 mph 30 % 0.00 in
16:13 51.9 °F 21.4 °F 30.25 in WNW 5.8 mph 9.2 mph 30 % 0.00 in
16:23 51.5 °F 21.0 °F 30.25 in West 3.7 mph 4.6 mph 30 % 0.00 in
16:33 51.7 °F 22.0 °F 30.25 in West 4.7 mph 7.0 mph 31 % 0.00 in
16:43 51.8 °F 22.1 °F 30.26 in SSW 5.2 mph 7.0 mph 31 % 0.00 in
16:49 51.6 °F 21.9 °F 30.25 in WNW 6.1 mph 6.9 mph 31 % 0.00 in
16:54 51.7 °F 21.2 °F 30.25 in WSW 3.9 mph 5.0 mph 30 % 0.00 in
16:59 51.8 °F 22.1 °F 30.25 in West 6.4 mph 10.4 mph 31 % 0.00 in
17:04 51.8 °F 22.1 °F 30.26 in SW 3.6 mph 6.9 mph 31 % 0.00 in
17:09 52.0 °F 25.8 °F 30.26 in SW 1.4 mph 6.0 mph 36 % 0.00 in
17:14 52.0 °F 25.2 °F 30.26 in SSW 5.0 mph 11.5 mph 35 % 0.00 in
17:19 51.8 °F 25.7 °F 30.26 in SSW 3.2 mph 5.8 mph 36 % 0.00 in
17:24 51.5 °F 24.7 °F 30.25 in SSW 5.6 mph 11.5 mph 35 % 0.00 in
17:29 51.4 °F 24.6 °F 30.25 in South 6.2 mph 10.4 mph 35 % 0.00 in
17:34 51.0 °F 25.0 °F 30.25 in South 8.7 mph 10.4 mph 36 % 0.00 in
17:40 50.6 °F 26.5 °F 30.25 in SSW 6.5 mph 11.0 mph 39 % 0.00 in
17:45 50.1 °F 26.7 °F 30.26 in South 6.4 mph 13.0 mph 40 % 0.00 in
17:50 49.5 °F 27.3 °F 30.26 in SSW 3.7 mph 17.3 mph 42 % 0.00 in
17:55 49.1 °F 27.5 °F 30.26 in SSW 3.1 mph 12.0 mph 43 % 0.00 in
18:00 48.5 °F 27.6 °F 30.27 in SSW 5.6 mph 11.5 mph 44 % 0.00 in
18:05 48.1 °F 28.3 °F 30.26 in SSW 7.9 mph 11.0 mph 46 % 0.00 in
18:10 47.6 °F 28.3 °F 30.26 in SSW 7.6 mph 12.7 mph 47 % 0.00 in
18:15 47.0 °F 28.3 °F 30.26 in South 7.4 mph 11.5 mph 48 % 0.00 in
18:20 46.5 °F 28.3 °F 30.26 in South 3.4 mph 8.1 mph 49 % 0.00 in
18:25 46.0 °F 27.9 °F 30.26 in South 5.7 mph 11.5 mph 49 % 0.00 in
18:31 45.7 °F 28.1 °F 30.26 in South 4.9 mph 8.1 mph 50 % 0.00 in
18:36 45.3 °F 28.2 °F 30.26 in South 4.6 mph 11.5 mph 51 % 0.00 in
18:41 45.0 °F 28.4 °F 30.26 in South 6.3 mph 11.5 mph 52 % 0.00 in
18:46 44.8 °F 28.7 °F 30.26 in South 5.3 mph 9.2 mph 53 % 0.00 in
18:51 44.5 °F 28.9 °F 30.26 in South 2.6 mph 4.6 mph 54 % 0.00 in
19:01 44.0 °F 28.4 °F 30.26 in SSW 5.9 mph 11.5 mph 54 % 0.00 in
19:06 43.8 °F 28.7 °F 30.26 in South 3.0 mph 8.1 mph 55 % 0.00 in
19:11 43.6 °F 28.9 °F 30.26 in SSW 4.5 mph 8.1 mph 56 % 0.00 in
19:16 43.5 °F 29.3 °F 30.26 in SSW 5.4 mph 11.5 mph 57 % 0.00 in
19:22 43.2 °F 29.4 °F 30.26 in SSW 6.7 mph 10.4 mph 58 % 0.00 in
19:27 43.1 °F 29.7 °F 30.26 in South 6.5 mph 10.4 mph 59 % 0.00 in
19:32 42.8 °F 29.9 °F 30.26 in South 3.6 mph 12.7 mph 60 % 0.00 in
19:37 42.6 °F 30.5 °F 30.26 in SSE 6.8 mph 10.4 mph 62 % 0.00 in
19:42 42.5 °F 30.8 °F 30.26 in SSW 6.7 mph 11.5 mph 63 % 0.00 in
19:47 42.4 °F 31.1 °F 30.26 in SSW 4.2 mph 6.9 mph 64 % 0.00 in
19:52 42.2 °F 31.3 °F 30.26 in South 5.2 mph 8.0 mph 65 % 0.00 in
19:57 42.1 °F 31.6 °F 30.27 in SSW 3.9 mph 7.0 mph 66 % 0.00 in
20:02 42.0 °F 31.8 °F 30.26 in South 4.7 mph 6.9 mph 67 % 0.00 in
20:07 41.9 °F 32.1 °F 30.26 in South 2.7 mph 8.1 mph 68 % 0.00 in
20:13 41.8 °F 32.4 °F 30.26 in South 4.3 mph 9.2 mph 69 % 0.00 in
20:18 41.7 °F 32.6 °F 30.27 in SSW 5.0 mph 8.1 mph 70 % 0.00 in
20:23 41.7 °F 32.6 °F 30.27 in SSW 3.4 mph 6.9 mph 70 % 0.00 in
20:28 41.6 °F 32.5 °F 30.27 in SSW 2.9 mph 8.1 mph 70 % 0.00 in
20:33 41.5 °F 32.8 °F 30.27 in SSW 3.3 mph 8.1 mph 71 % 0.00 in
20:38 41.5 °F 32.8 °F 30.27 in SSW 3.4 mph 6.0 mph 71 % 0.00 in
20:43 41.4 °F 33.0 °F 30.27 in SSW 5.8 mph 8.1 mph 72 % 0.00 in
20:48 41.4 °F 33.0 °F 30.27 in South 4.7 mph 6.0 mph 72 % 0.00 in
20:53 41.4 °F 33.0 °F 30.28 in SSW 3.3 mph 6.9 mph 72 % 0.00 in
20:58 41.3 °F 33.0 °F 30.28 in SSW 4.3 mph 8.1 mph 72 % 0.00 in
21:04 41.3 °F 33.3 °F 30.28 in SSW 2.3 mph 3.5 mph 73 % 0.00 in
21:09 41.3 °F 33.3 °F 30.28 in SSW 5.6 mph 9.2 mph 73 % 0.00 in
21:19 41.3 °F 33.3 °F 30.29 in South 2.0 mph 4.6 mph 73 % 0.00 in
21:24 41.3 °F 33.6 °F 30.29 in SSE 5.0 mph 6.9 mph 74 % 0.00 in
21:29 41.3 °F 33.6 °F 30.30 in SW 3.0 mph 5.8 mph 74 % 0.00 in
21:34 41.3 °F 34.0 °F 30.30 in SSW 3.8 mph 5.8 mph 75 % 0.00 in
21:39 41.5 °F 34.2 °F 30.30 in South 4.3 mph 9.2 mph 75 % 0.00 in
21:44 41.6 °F 34.3 °F 30.30 in SW 3.5 mph 5.0 mph 75 % 0.00 in
21:55 41.9 °F 34.6 °F 30.30 in SSW 4.8 mph 8.1 mph 75 % 0.00 in
22:00 42.0 °F 34.6 °F 30.29 in SSW 5.1 mph 7.0 mph 75 % 0.00 in
22:10 42.2 °F 34.8 °F 30.30 in South 4.0 mph 6.9 mph 75 % 0.00 in
22:15 42.3 °F 34.9 °F 30.30 in South 5.0 mph 6.9 mph 75 % 0.00 in
22:20 42.3 °F 34.6 °F 30.30 in South 2.8 mph 6.9 mph 74 % 0.00 in
22:25 42.3 °F 34.6 °F 30.30 in South 2.6 mph 4.6 mph 74 % 0.00 in
22:30 42.3 °F 34.6 °F 30.30 in SSW 1.7 mph 3.5 mph 74 % 0.00 in
22:35 42.3 °F 34.9 °F 30.30 in SSW 2.0 mph 4.6 mph 75 % 0.00 in
22:40 42.3 °F 34.9 °F 30.29 in South 3.2 mph 8.0 mph 75 % 0.00 in
22:46 42.4 °F 35.0 °F 30.30 in SSW 3.4 mph 5.8 mph 75 % 0.00 in
22:51 42.5 °F 35.1 °F 30.30 in South 2.8 mph 4.6 mph 75 % 0.00 in
22:56 42.5 °F 35.1 °F 30.30 in SSW 2.5 mph 7.0 mph 75 % 0.00 in
23:01 42.7 °F 35.3 °F 30.29 in SSE 2.9 mph 5.8 mph 75 % 0.00 in
23:06 42.8 °F 35.4 °F 30.30 in SSW 4.6 mph 5.8 mph 75 % 0.00 in
23:16 43.1 °F 35.4 °F 30.30 in South 2.2 mph 5.8 mph 74 % 0.00 in
23:21 43.2 °F 35.5 °F 30.30 in SSW 3.2 mph 5.8 mph 74 % 0.00 in
23:26 43.3 °F 35.2 °F 30.29 in SSW 2.3 mph 3.5 mph 73 % 0.00 in
23:31 43.3 °F 35.2 °F 30.29 in SSW 3.5 mph 3.5 mph 73 % 0.00 in
23:37 43.4 °F 35.3 °F 30.29 in SSW 1.4 mph 2.3 mph 73 % 0.00 in
23:42 43.4 °F 35.0 °F 30.29 in SSW 4.4 mph 8.0 mph 72 % 0.00 in
23:52 43.6 °F 35.2 °F 30.29 in South 7.0 mph 11.5 mph 72 % 0.00 in
23:57 43.7 °F 35.6 °F 30.29 in South 5.6 mph 6.9 mph 73 % 0.00 in
Crab Meadow Weather
Compliments of Weather Underground - 2.75 mb

Script developed by  Jim McMurry - jmcmurry@mwt.net Adapted for the template by  Wim van der Kuil - Leuven-Template.eu

Recycling: Americans use 85,000,000 tons of paper a year; about 680 pounds per person.